sensor_id;sensor_type;location;lat;lon;timestamp;temperature;humidity
13256;DHT22;37913;48.370;10.930;2022-08-03T00:01:06;16.30;99.90
13256;DHT22;37913;48.370;10.930;2022-08-03T00:03:33;16.30;99.90
13256;DHT22;37913;48.370;10.930;2022-08-03T00:06:00;16.30;99.90
13256;DHT22;37913;48.370;10.930;2022-08-03T00:08:27;16.30;99.90
13256;DHT22;37913;48.370;10.930;2022-08-03T00:10:54;16.30;99.90
13256;DHT22;37913;48.370;10.930;2022-08-03T00:13:21;16.20;99.90
13256;DHT22;37913;48.370;10.930;2022-08-03T00:15:50;16.10;99.90
13256;DHT22;37913;48.370;10.930;2022-08-03T00:18:17;16.20;99.90
13256;DHT22;37913;48.370;10.930;2022-08-03T00:20:44;16.20;99.90
13256;DHT22;37913;48.370;10.930;2022-08-03T00:23:12;16.20;99.90
13256;DHT22;37913;48.370;10.930;2022-08-03T00:25:39;16.20;99.90
13256;DHT22;37913;48.370;10.930;2022-08-03T00:28:07;16.10;99.90
13256;DHT22;37913;48.370;10.930;2022-08-03T00:30:34;16.10;99.90
13256;DHT22;37913;48.370;10.930;2022-08-03T00:33:02;16.10;99.90
13256;DHT22;37913;48.370;10.930;2022-08-03T00:35:29;16.10;99.90
13256;DHT22;37913;48.370;10.930;2022-08-03T00:37:57;16.00;99.90
13256;DHT22;37913;48.370;10.930;2022-08-03T00:40:24;16.00;99.90
13256;DHT22;37913;48.370;10.930;2022-08-03T00:42:52;15.90;99.90
13256;DHT22;37913;48.370;10.930;2022-08-03T00:45:23;15.90;99.90
13256;DHT22;37913;48.370;10.930;2022-08-03T00:47:50;15.80;99.90
13256;DHT22;37913;48.370;10.930;2022-08-03T00:50:19;15.80;99.90
13256;DHT22;37913;48.370;10.930;2022-08-03T00:52:48;15.80;99.90
13256;DHT22;37913;48.370;10.930;2022-08-03T00:55:15;15.80;99.90
13256;DHT22;37913;48.370;10.930;2022-08-03T00:57:42;15.90;99.90
13256;DHT22;37913;48.370;10.930;2022-08-03T01:00:12;15.90;99.90
13256;DHT22;37913;48.370;10.930;2022-08-03T01:02:40;15.80;99.90
13256;DHT22;37913;48.370;10.930;2022-08-03T01:05:07;15.80;99.90
13256;DHT22;37913;48.370;10.930;2022-08-03T01:07:41;15.80;99.90
13256;DHT22;37913;48.370;10.930;2022-08-03T01:10:16;15.80;99.90
13256;DHT22;37913;48.370;10.930;2022-08-03T01:12:52;15.80;99.90
13256;DHT22;37913;48.370;10.930;2022-08-03T01:15:27;15.70;99.90
13256;DHT22;37913;48.370;10.930;2022-08-03T01:17:59;15.60;99.90
13256;DHT22;37913;48.370;10.930;2022-08-03T01:20:32;15.50;99.90
13256;DHT22;37913;48.370;10.930;2022-08-03T01:23:28;15.50;99.90
13256;DHT22;37913;48.370;10.930;2022-08-03T01:26:23;15.40;99.90
13256;DHT22;37913;48.370;10.930;2022-08-03T01:29:03;15.30;99.90
13256;DHT22;37913;48.370;10.930;2022-08-03T01:31:39;15.30;99.90
13256;DHT22;37913;48.370;10.930;2022-08-03T01:34:11;15.30;99.90
13256;DHT22;37913;48.370;10.930;2022-08-03T01:36:45;15.30;99.90
13256;DHT22;37913;48.370;10.930;2022-08-03T01:39:14;15.30;99.90
13256;DHT22;37913;48.370;10.930;2022-08-03T01:41:47;15.20;99.90
13256;DHT22;37913;48.370;10.930;2022-08-03T01:44:15;15.20;99.90
13256;DHT22;37913;48.370;10.930;2022-08-03T01:46:44;15.20;99.90
13256;DHT22;37913;48.370;10.930;2022-08-03T01:49:14;15.20;99.90
13256;DHT22;37913;48.370;10.930;2022-08-03T01:51:41;15.20;99.90
13256;DHT22;37913;48.370;10.930;2022-08-03T01:54:10;15.10;99.90
13256;DHT22;37913;48.370;10.930;2022-08-03T01:56:39;15.00;99.90
13256;DHT22;37913;48.370;10.930;2022-08-03T01:59:07;15.10;99.90
13256;DHT22;37913;48.370;10.930;2022-08-03T02:01:36;15.00;99.90
13256;DHT22;37913;48.370;10.930;2022-08-03T02:04:06;15.00;99.90
13256;DHT22;37913;48.370;10.930;2022-08-03T02:06:35;14.90;99.90
13256;DHT22;37913;48.370;10.930;2022-08-03T02:09:03;14.90;99.90
13256;DHT22;37913;48.370;10.930;2022-08-03T02:11:32;14.90;99.90
13256;DHT22;37913;48.370;10.930;2022-08-03T02:14:01;14.90;99.90
13256;DHT22;37913;48.370;10.930;2022-08-03T02:16:30;14.90;99.90
13256;DHT22;37913;48.370;10.930;2022-08-03T02:18:59;14.90;99.90
13256;DHT22;37913;48.370;10.930;2022-08-03T02:21:29;14.90;99.90
13256;DHT22;37913;48.370;10.930;2022-08-03T02:23:58;14.90;99.90
13256;DHT22;37913;48.370;10.930;2022-08-03T02:26:28;14.90;99.90
13256;DHT22;37913;48.370;10.930;2022-08-03T02:28:57;14.90;99.90
13256;DHT22;37913;48.370;10.930;2022-08-03T02:31:28;14.90;99.90
13256;DHT22;37913;48.370;10.930;2022-08-03T02:33:59;14.90;99.90
13256;DHT22;37913;48.370;10.930;2022-08-03T02:36:29;15.00;99.90
13256;DHT22;37913;48.370;10.930;2022-08-03T02:38:59;15.00;99.90
13256;DHT22;37913;48.370;10.930;2022-08-03T02:41:30;15.10;99.90
13256;DHT22;37913;48.370;10.930;2022-08-03T02:44:01;15.10;99.90
13256;DHT22;37913;48.370;10.930;2022-08-03T02:46:31;15.00;99.90
13256;DHT22;37913;48.370;10.930;2022-08-03T02:49:00;14.90;99.90
13256;DHT22;37913;48.370;10.930;2022-08-03T02:51:32;14.80;99.90
13256;DHT22;37913;48.370;10.930;2022-08-03T02:54:02;14.70;99.90
13256;DHT22;37913;48.370;10.930;2022-08-03T02:56:30;14.80;99.90
13256;DHT22;37913;48.370;10.930;2022-08-03T02:58:58;14.70;99.90
13256;DHT22;37913;48.370;10.930;2022-08-03T03:01:27;14.70;99.90
13256;DHT22;37913;48.370;10.930;2022-08-03T03:03:56;14.60;99.90
13256;DHT22;37913;48.370;10.930;2022-08-03T03:06:24;14.70;99.90
13256;DHT22;37913;48.370;10.930;2022-08-03T03:08:54;14.70;99.90
13256;DHT22;37913;48.370;10.930;2022-08-03T03:11:22;14.80;99.90
13256;DHT22;37913;48.370;10.930;2022-08-03T03:13:51;14.70;99.90
13256;DHT22;37913;48.370;10.930;2022-08-03T03:16:18;14.60;99.90
13256;DHT22;37913;48.370;10.930;2022-08-03T03:18:46;14.60;99.90
13256;DHT22;37913;48.370;10.930;2022-08-03T03:21:17;14.60;99.90
13256;DHT22;37913;48.370;10.930;2022-08-03T03:23:44;14.60;99.90
13256;DHT22;37913;48.370;10.930;2022-08-03T03:26:14;14.60;99.90
13256;DHT22;37913;48.370;10.930;2022-08-03T03:28:41;14.60;99.90
13256;DHT22;37913;48.370;10.930;2022-08-03T03:31:08;14.60;99.90
13256;DHT22;37913;48.370;10.930;2022-08-03T03:33:36;14.60;99.90
13256;DHT22;37913;48.370;10.930;2022-08-03T03:36:04;14.60;99.90
13256;DHT22;37913;48.370;10.930;2022-08-03T03:38:32;14.50;99.90
13256;DHT22;37913;48.370;10.930;2022-08-03T03:40:59;14.50;99.90
13256;DHT22;37913;48.370;10.930;2022-08-03T03:43:28;14.50;99.90
13256;DHT22;37913;48.370;10.930;2022-08-03T03:45:57;14.50;99.90
13256;DHT22;37913;48.370;10.930;2022-08-03T03:48:25;14.60;99.90
13256;DHT22;37913;48.370;10.930;2022-08-03T03:50:58;14.60;99.90
13256;DHT22;37913;48.370;10.930;2022-08-03T03:53:26;14.60;99.90
13256;DHT22;37913;48.370;10.930;2022-08-03T03:55:58;14.60;99.90
13256;DHT22;37913;48.370;10.930;2022-08-03T03:58:25;14.60;99.90
13256;DHT22;37913;48.370;10.930;2022-08-03T04:00:54;14.60;99.90
13256;DHT22;37913;48.370;10.930;2022-08-03T04:03:26;14.60;99.90
13256;DHT22;37913;48.370;10.930;2022-08-03T04:05:53;14.70;99.90
13256;DHT22;37913;48.370;10.930;2022-08-03T04:08:37;14.70;99.90
13256;DHT22;37913;48.370;10.930;2022-08-03T04:11:27;14.70;99.90
13256;DHT22;37913;48.370;10.930;2022-08-03T04:13:58;14.80;99.90
13256;DHT22;37913;48.370;10.930;2022-08-03T04:16:31;14.80;99.90
13256;DHT22;37913;48.370;10.930;2022-08-03T04:19:01;14.90;99.90
13256;DHT22;37913;48.370;10.930;2022-08-03T04:21:29;14.90;99.90
13256;DHT22;37913;48.370;10.930;2022-08-03T04:24:01;15.00;99.90
13256;DHT22;37913;48.370;10.930;2022-08-03T04:26:30;15.00;99.90
13256;DHT22;37913;48.370;10.930;2022-08-03T04:28:59;15.20;99.90
13256;DHT22;37913;48.370;10.930;2022-08-03T04:31:29;15.20;99.90
13256;DHT22;37913;48.370;10.930;2022-08-03T04:33:56;15.30;99.90
13256;DHT22;37913;48.370;10.930;2022-08-03T04:36:26;15.40;99.90
13256;DHT22;37913;48.370;10.930;2022-08-03T04:38:59;15.50;99.90
13256;DHT22;37913;48.370;10.930;2022-08-03T04:41:27;15.60;99.90
13256;DHT22;37913;48.370;10.930;2022-08-03T04:43:56;15.70;99.90
13256;DHT22;37913;48.370;10.930;2022-08-03T04:46:26;15.70;99.90
13256;DHT22;37913;48.370;10.930;2022-08-03T04:48:55;15.90;99.90
13256;DHT22;37913;48.370;10.930;2022-08-03T04:51:22;16.10;99.90
13256;DHT22;37913;48.370;10.930;2022-08-03T04:53:50;16.30;99.90
13256;DHT22;37913;48.370;10.930;2022-08-03T04:56:17;16.40;99.90
13256;DHT22;37913;48.370;10.930;2022-08-03T04:58:44;16.70;99.90
13256;DHT22;37913;48.370;10.930;2022-08-03T05:01:15;16.90;99.90
13256;DHT22;37913;48.370;10.930;2022-08-03T05:03:42;17.20;99.90
13256;DHT22;37913;48.370;10.930;2022-08-03T05:06:11;17.40;99.90
13256;DHT22;37913;48.370;10.930;2022-08-03T05:08:38;17.60;99.90
13256;DHT22;37913;48.370;10.930;2022-08-03T05:11:05;17.90;99.90
13256;DHT22;37913;48.370;10.930;2022-08-03T05:13:33;18.20;99.90
13256;DHT22;37913;48.370;10.930;2022-08-03T05:16:00;18.50;99.90
13256;DHT22;37913;48.370;10.930;2022-08-03T05:18:27;18.80;99.90
13256;DHT22;37913;48.370;10.930;2022-08-03T05:20:54;19.20;99.90
13256;DHT22;37913;48.370;10.930;2022-08-03T05:23:22;19.60;99.90
13256;DHT22;37913;48.370;10.930;2022-08-03T05:25:49;20.00;99.90
13256;DHT22;37913;48.370;10.930;2022-08-03T05:28:17;20.40;99.90
13256;DHT22;37913;48.370;10.930;2022-08-03T05:30:44;20.80;99.90
13256;DHT22;37913;48.370;10.930;2022-08-03T05:33:11;21.30;99.90
13256;DHT22;37913;48.370;10.930;2022-08-03T05:35:38;21.80;1.00
13256;DHT22;37913;48.370;10.930;2022-08-03T05:38:13;22.10;1.00
13256;DHT22;37913;48.370;10.930;2022-08-03T05:40:48;22.20;1.00
13256;DHT22;37913;48.370;10.930;2022-08-03T05:43:15;22.50;1.00
13256;DHT22;37913;48.370;10.930;2022-08-03T05:45:42;22.60;76.80
13256;DHT22;37913;48.370;10.930;2022-08-03T05:48:09;22.90;99.90
13256;DHT22;37913;48.370;10.930;2022-08-03T05:50:36;23.30;1.00
13256;DHT22;37913;48.370;10.930;2022-08-03T05:53:14;23.50;91.80
13256;DHT22;37913;48.370;10.930;2022-08-03T05:55:43;23.80;99.90
13256;DHT22;37913;48.370;10.930;2022-08-03T05:58:09;24.30;99.90
13256;DHT22;37913;48.370;10.930;2022-08-03T06:00:37;24.60;99.90
13256;DHT22;37913;48.370;10.930;2022-08-03T06:03:04;24.90;99.90
13256;DHT22;37913;48.370;10.930;2022-08-03T06:05:35;25.30;99.90
13256;DHT22;37913;48.370;10.930;2022-08-03T06:08:02;25.80;99.90
13256;DHT22;37913;48.370;10.930;2022-08-03T06:10:29;26.00;99.90
13256;DHT22;37913;48.370;10.930;2022-08-03T06:12:57;26.40;99.90
13256;DHT22;37913;48.370;10.930;2022-08-03T06:15:24;27.30;99.90
13256;DHT22;37913;48.370;10.930;2022-08-03T06:17:51;28.20;99.90
13256;DHT22;37913;48.370;10.930;2022-08-03T06:20:19;29.20;99.90
13256;DHT22;37913;48.370;10.930;2022-08-03T06:22:47;29.80;99.90
13256;DHT22;37913;48.370;10.930;2022-08-03T06:25:16;30.30;99.90
13256;DHT22;37913;48.370;10.930;2022-08-03T06:27:44;30.80;99.90
13256;DHT22;37913;48.370;10.930;2022-08-03T06:30:13;31.60;99.90
13256;DHT22;37913;48.370;10.930;2022-08-03T06:32:41;32.00;99.90
13256;DHT22;37913;48.370;10.930;2022-08-03T06:35:09;32.30;99.90
13256;DHT22;37913;48.370;10.930;2022-08-03T06:37:45;32.80;99.90
13256;DHT22;37913;48.370;10.930;2022-08-03T06:40:28;33.10;99.90
13256;DHT22;37913;48.370;10.930;2022-08-03T06:42:56;33.70;98.90
13256;DHT22;37913;48.370;10.930;2022-08-03T06:45:24;34.20;97.70
13256;DHT22;37913;48.370;10.930;2022-08-03T06:47:59;34.50;97.00
13256;DHT22;37913;48.370;10.930;2022-08-03T06:50:27;34.80;96.10
13256;DHT22;37913;48.370;10.930;2022-08-03T06:52:54;34.90;95.80
13256;DHT22;37913;48.370;10.930;2022-08-03T06:55:22;35.30;95.10
13256;DHT22;37913;48.370;10.930;2022-08-03T06:57:49;35.50;94.40
13256;DHT22;37913;48.370;10.930;2022-08-03T07:00:24;35.50;94.20
13256;DHT22;37913;48.370;10.930;2022-08-03T07:02:51;35.00;93.80
13256;DHT22;37913;48.370;10.930;2022-08-03T07:05:18;35.80;93.50
13256;DHT22;37913;48.370;10.930;2022-08-03T07:07:45;36.40;92.30
13256;DHT22;37913;48.370;10.930;2022-08-03T07:10:13;36.80;91.90
13256;DHT22;37913;48.370;10.930;2022-08-03T07:12:40;36.20;91.00
13256;DHT22;37913;48.370;10.930;2022-08-03T07:15:07;35.60;91.60
13256;DHT22;37913;48.370;10.930;2022-08-03T07:17:36;35.70;91.60
13256;DHT22;37913;48.370;10.930;2022-08-03T07:20:05;36.40;90.40
13256;DHT22;37913;48.370;10.930;2022-08-03T07:22:32;36.70;90.60
13256;DHT22;37913;48.370;10.930;2022-08-03T07:24:59;37.50;89.30
13256;DHT22;37913;48.370;10.930;2022-08-03T07:27:26;37.30;88.30
13256;DHT22;37913;48.370;10.930;2022-08-03T07:29:55;36.90;90.00
13256;DHT22;37913;48.370;10.930;2022-08-03T07:32:22;37.80;87.20
13256;DHT22;37913;48.370;10.930;2022-08-03T07:34:50;36.40;88.00
13256;DHT22;37913;48.370;10.930;2022-08-03T07:37:17;35.70;89.20
13256;DHT22;37913;48.370;10.930;2022-08-03T07:39:44;36.70;88.80
13256;DHT22;37913;48.370;10.930;2022-08-03T07:42:11;36.50;87.80
13256;DHT22;37913;48.370;10.930;2022-08-03T07:44:38;37.50;88.00
13256;DHT22;37913;48.370;10.930;2022-08-03T07:47:05;39.00;84.70
13256;DHT22;37913;48.370;10.930;2022-08-03T07:49:32;40.00;82.20
13256;DHT22;37913;48.370;10.930;2022-08-03T07:52:01;40.90;80.60
13256;DHT22;37913;48.370;10.930;2022-08-03T07:54:45;40.60;78.90
13256;DHT22;37913;48.370;10.930;2022-08-03T07:57:12;39.10;79.50
13256;DHT22;37913;48.370;10.930;2022-08-03T07:59:39;38.30;81.20
13256;DHT22;37913;48.370;10.930;2022-08-03T08:02:07;40.00;80.00
13256;DHT22;37913;48.370;10.930;2022-08-03T08:04:34;41.10;76.90
13256;DHT22;37913;48.370;10.930;2022-08-03T08:07:02;42.40;75.00
13256;DHT22;37913;48.370;10.930;2022-08-03T08:09:29;42.00;74.60
13256;DHT22;37913;48.370;10.930;2022-08-03T08:11:56;42.00;74.00
13256;DHT22;37913;48.370;10.930;2022-08-03T08:14:23;42.40;72.20
13256;DHT22;37913;48.370;10.930;2022-08-03T08:16:50;43.30;71.50
13256;DHT22;37913;48.370;10.930;2022-08-03T08:19:17;42.80;70.20
13256;DHT22;37913;48.370;10.930;2022-08-03T08:21:44;42.50;70.50
13256;DHT22;37913;48.370;10.930;2022-08-03T08:24:12;43.00;68.50
13256;DHT22;37913;48.370;10.930;2022-08-03T08:26:39;43.10;67.60
13256;DHT22;37913;48.370;10.930;2022-08-03T08:29:06;43.50;66.60
13256;DHT22;37913;48.370;10.930;2022-08-03T08:31:33;43.00;65.80
13256;DHT22;37913;48.370;10.930;2022-08-03T08:34:00;42.90;66.80
13256;DHT22;37913;48.370;10.930;2022-08-03T08:36:31;42.70;66.00
13256;DHT22;37913;48.370;10.930;2022-08-03T08:38:58;43.70;64.50
13256;DHT22;37913;48.370;10.930;2022-08-03T08:41:27;43.30;61.90
13256;DHT22;37913;48.370;10.930;2022-08-03T08:43:54;43.20;62.00
13256;DHT22;37913;48.370;10.930;2022-08-03T08:46:21;43.50;59.60
13256;DHT22;37913;48.370;10.930;2022-08-03T08:48:49;42.50;60.10
13256;DHT22;37913;48.370;10.930;2022-08-03T08:51:19;43.90;58.50
13256;DHT22;37913;48.370;10.930;2022-08-03T08:53:50;44.70;57.70
13256;DHT22;37913;48.370;10.930;2022-08-03T08:56:19;45.60;55.10
13256;DHT22;37913;48.370;10.930;2022-08-03T08:58:53;45.80;54.90
13256;DHT22;37913;48.370;10.930;2022-08-03T09:01:21;46.30;51.40
13256;DHT22;37913;48.370;10.930;2022-08-03T09:03:50;46.70;99.90
13256;DHT22;37913;48.370;10.930;2022-08-03T09:06:18;47.70;99.90
13256;DHT22;37913;48.370;10.930;2022-08-03T09:08:45;47.00;99.90
13256;DHT22;37913;48.370;10.930;2022-08-03T09:11:12;47.40;99.90
13256;DHT22;37913;48.370;10.930;2022-08-03T09:13:39;47.10;99.90
13256;DHT22;37913;48.370;10.930;2022-08-03T09:16:15;46.40;99.90
13256;DHT22;37913;48.370;10.930;2022-08-03T09:18:44;47.90;99.90
13256;DHT22;37913;48.370;10.930;2022-08-03T09:21:13;48.60;99.90
13256;DHT22;37913;48.370;10.930;2022-08-03T09:23:44;48.90;99.90
13256;DHT22;37913;48.370;10.930;2022-08-03T09:26:11;48.60;1.00
13256;DHT22;37913;48.370;10.930;2022-08-03T09:28:38;49.10;1.00
13256;DHT22;37913;48.370;10.930;2022-08-03T09:31:06;49.30;1.00
13256;DHT22;37913;48.370;10.930;2022-08-03T09:33:45;49.90;1.00
13256;DHT22;37913;48.370;10.930;2022-08-03T09:36:34;50.00;1.00
13256;DHT22;37913;48.370;10.930;2022-08-03T09:39:02;49.90;1.00
13256;DHT22;37913;48.370;10.930;2022-08-03T09:41:31;49.10;1.00
13256;DHT22;37913;48.370;10.930;2022-08-03T09:43:58;46.60;1.00
13256;DHT22;37913;48.370;10.930;2022-08-03T09:46:25;46.40;1.00
13256;DHT22;37913;48.370;10.930;2022-08-03T09:49:09;47.40;1.00
13256;DHT22;37913;48.370;10.930;2022-08-03T09:51:37;48.50;1.00
13256;DHT22;37913;48.370;10.930;2022-08-03T09:54:05;49.50;1.00
13256;DHT22;37913;48.370;10.930;2022-08-03T09:56:43;50.80;1.00
13256;DHT22;37913;48.370;10.930;2022-08-03T09:59:12;52.40;1.00
13256;DHT22;37913;48.370;10.930;2022-08-03T10:01:39;52.40;1.00
13256;DHT22;37913;48.370;10.930;2022-08-03T10:04:12;52.60;1.00
13256;DHT22;37913;48.370;10.930;2022-08-03T10:06:43;51.20;1.00
13256;DHT22;37913;48.370;10.930;2022-08-03T10:09:14;49.80;1.00
13256;DHT22;37913;48.370;10.930;2022-08-03T10:11:42;49.70;1.00
13256;DHT22;37913;48.370;10.930;2022-08-03T10:14:10;49.90;1.00
13256;DHT22;37913;48.370;10.930;2022-08-03T10:16:43;51.40;1.00
13256;DHT22;37913;48.370;10.930;2022-08-03T10:19:12;50.70;1.00
13256;DHT22;37913;48.370;10.930;2022-08-03T10:21:45;50.20;1.00
13256;DHT22;37913;48.370;10.930;2022-08-03T10:24:16;51.30;1.00
13256;DHT22;37913;48.370;10.930;2022-08-03T10:26:45;53.20;1.00
13256;DHT22;37913;48.370;10.930;2022-08-03T10:29:19;52.00;1.00
13256;DHT22;37913;48.370;10.930;2022-08-03T10:31:47;50.70;1.00
13256;DHT22;37913;48.370;10.930;2022-08-03T10:34:18;48.40;1.00
13256;DHT22;37913;48.370;10.930;2022-08-03T10:36:48;50.10;1.00
13256;DHT22;37913;48.370;10.930;2022-08-03T10:39:20;51.50;1.00
13256;DHT22;37913;48.370;10.930;2022-08-03T10:41:48;52.90;1.00
13256;DHT22;37913;48.370;10.930;2022-08-03T10:44:18;53.00;1.00
13256;DHT22;37913;48.370;10.930;2022-08-03T10:46:46;51.60;1.00
13256;DHT22;37913;48.370;10.930;2022-08-03T10:49:18;50.90;1.00
13256;DHT22;37913;48.370;10.930;2022-08-03T10:51:46;50.10;1.00
13256;DHT22;37913;48.370;10.930;2022-08-03T10:54:38;49.20;1.00
13256;DHT22;37913;48.370;10.930;2022-08-03T10:57:46;50.50;1.00
13256;DHT22;37913;48.370;10.930;2022-08-03T11:00:14;50.90;1.00
13256;DHT22;37913;48.370;10.930;2022-08-03T11:03:05;50.20;1.00
13256;DHT22;37913;48.370;10.930;2022-08-03T11:05:36;51.00;1.00
13256;DHT22;37913;48.370;10.930;2022-08-03T11:08:24;51.60;1.00
13256;DHT22;37913;48.370;10.930;2022-08-03T11:10:52;51.10;1.00
13256;DHT22;37913;48.370;10.930;2022-08-03T11:13:22;51.70;1.00
13256;DHT22;37913;48.370;10.930;2022-08-03T11:15:51;52.70;1.00
13256;DHT22;37913;48.370;10.930;2022-08-03T11:18:19;49.50;1.00
13256;DHT22;37913;48.370;10.930;2022-08-03T11:20:49;47.20;1.00
13256;DHT22;37913;48.370;10.930;2022-08-03T11:23:18;47.60;1.00
13256;DHT22;37913;48.370;10.930;2022-08-03T11:26:07;51.20;1.00
13256;DHT22;37913;48.370;10.930;2022-08-03T11:28:34;53.50;1.00
13256;DHT22;37913;48.370;10.930;2022-08-03T11:34:06;54.20;1.00
13256;DHT22;37913;48.370;10.930;2022-08-03T11:39:45;54.70;1.00
13256;DHT22;37913;48.370;10.930;2022-08-03T11:42:41;52.90;1.00
13256;DHT22;37913;48.370;10.930;2022-08-03T11:45:12;52.70;1.00
13256;DHT22;37913;48.370;10.930;2022-08-03T11:47:40;54.40;1.00
13256;DHT22;37913;48.370;10.930;2022-08-03T11:50:09;54.50;1.00
13256;DHT22;37913;48.370;10.930;2022-08-03T11:52:41;52.40;1.00
13256;DHT22;37913;48.370;10.930;2022-08-03T11:55:16;50.10;1.00
13256;DHT22;37913;48.370;10.930;2022-08-03T11:57:45;49.60;1.00
13256;DHT22;37913;48.370;10.930;2022-08-03T12:00:23;49.30;1.00
13256;DHT22;37913;48.370;10.930;2022-08-03T12:03:03;49.60;1.00
13256;DHT22;37913;48.370;10.930;2022-08-03T12:05:42;51.00;1.00
13256;DHT22;37913;48.370;10.930;2022-08-03T12:08:11;53.20;1.00
13256;DHT22;37913;48.370;10.930;2022-08-03T12:10:44;55.20;1.00
13256;DHT22;37913;48.370;10.930;2022-08-03T12:13:12;54.70;1.00
13256;DHT22;37913;48.370;10.930;2022-08-03T12:15:39;54.50;1.00
13256;DHT22;37913;48.370;10.930;2022-08-03T12:18:15;51.40;1.00
13256;DHT22;37913;48.370;10.930;2022-08-03T12:20:43;49.20;1.00
13256;DHT22;37913;48.370;10.930;2022-08-03T12:23:11;49.20;1.00
13256;DHT22;37913;48.370;10.930;2022-08-03T12:25:40;49.20;1.00
13256;DHT22;37913;48.370;10.930;2022-08-03T12:28:12;51.60;1.00
13256;DHT22;37913;48.370;10.930;2022-08-03T12:30:47;50.70;1.00
13256;DHT22;37913;48.370;10.930;2022-08-03T12:33:17;50.70;1.00
13256;DHT22;37913;48.370;10.930;2022-08-03T12:35:47;49.60;1.00
13256;DHT22;37913;48.370;10.930;2022-08-03T12:38:19;51.00;1.00
13256;DHT22;37913;48.370;10.930;2022-08-03T12:41:02;49.80;1.00
13256;DHT22;37913;48.370;10.930;2022-08-03T12:43:29;49.10;1.00
13256;DHT22;37913;48.370;10.930;2022-08-03T12:46:10;47.80;1.00
13256;DHT22;37913;48.370;10.930;2022-08-03T12:49:03;48.80;1.00
13256;DHT22;37913;48.370;10.930;2022-08-03T12:51:32;49.30;1.00
13256;DHT22;37913;48.370;10.930;2022-08-03T12:54:00;50.80;1.00
13256;DHT22;37913;48.370;10.930;2022-08-03T12:56:28;51.90;1.00
13256;DHT22;37913;48.370;10.930;2022-08-03T12:58:55;51.40;1.00
13256;DHT22;37913;48.370;10.930;2022-08-03T13:01:22;50.00;1.00
13256;DHT22;37913;48.370;10.930;2022-08-03T13:03:52;46.80;1.00
13256;DHT22;37913;48.370;10.930;2022-08-03T13:06:24;48.10;1.00
13256;DHT22;37913;48.370;10.930;2022-08-03T13:09:02;49.30;1.00
13256;DHT22;37913;48.370;10.930;2022-08-03T13:11:32;49.00;1.00
13256;DHT22;37913;48.370;10.930;2022-08-03T13:13:59;48.60;1.00
13256;DHT22;37913;48.370;10.930;2022-08-03T13:16:27;48.50;1.00
13256;DHT22;37913;48.370;10.930;2022-08-03T13:18:54;49.70;1.00
13256;DHT22;37913;48.370;10.930;2022-08-03T13:21:21;50.80;1.00
13256;DHT22;37913;48.370;10.930;2022-08-03T13:23:48;50.90;1.00
13256;DHT22;37913;48.370;10.930;2022-08-03T13:26:15;50.60;1.00
13256;DHT22;37913;48.370;10.930;2022-08-03T13:28:44;49.50;1.00
13256;DHT22;37913;48.370;10.930;2022-08-03T13:31:11;48.90;1.00
13256;DHT22;37913;48.370;10.930;2022-08-03T13:33:38;49.80;1.00
13256;DHT22;37913;48.370;10.930;2022-08-03T13:36:06;50.20;1.00
13256;DHT22;37913;48.370;10.930;2022-08-03T13:38:34;50.50;1.00
13256;DHT22;37913;48.370;10.930;2022-08-03T13:41:01;50.80;1.00
13256;DHT22;37913;48.370;10.930;2022-08-03T13:43:29;50.90;1.00
13256;DHT22;37913;48.370;10.930;2022-08-03T13:45:57;50.80;1.00
13256;DHT22;37913;48.370;10.930;2022-08-03T13:48:25;50.40;1.00
13256;DHT22;37913;48.370;10.930;2022-08-03T13:50:52;50.20;1.00
13256;DHT22;37913;48.370;10.930;2022-08-03T13:53:19;49.50;1.00
13256;DHT22;37913;48.370;10.930;2022-08-03T13:55:46;48.90;1.00
13256;DHT22;37913;48.370;10.930;2022-08-03T13:58:13;48.70;1.00
13256;DHT22;37913;48.370;10.930;2022-08-03T14:00:40;47.10;1.00
13256;DHT22;37913;48.370;10.930;2022-08-03T14:03:09;45.70;1.00
13256;DHT22;37913;48.370;10.930;2022-08-03T14:05:36;44.80;1.00
13256;DHT22;37913;48.370;10.930;2022-08-03T14:08:05;43.90;1.00
13256;DHT22;37913;48.370;10.930;2022-08-03T14:10:34;43.20;1.00
13256;DHT22;37913;48.370;10.930;2022-08-03T14:13:02;40.50;1.00
13256;DHT22;37913;48.370;10.930;2022-08-03T14:15:29;38.90;1.00
13256;DHT22;37913;48.370;10.930;2022-08-03T14:17:56;37.90;1.00
13256;DHT22;37913;48.370;10.930;2022-08-03T14:20:25;37.70;1.00
13256;DHT22;37913;48.370;10.930;2022-08-03T14:22:53;37.50;1.00
13256;DHT22;37913;48.370;10.930;2022-08-03T14:25:20;37.20;1.00
13256;DHT22;37913;48.370;10.930;2022-08-03T14:27:48;36.20;1.00
13256;DHT22;37913;48.370;10.930;2022-08-03T14:30:16;35.50;1.00
13256;DHT22;37913;48.370;10.930;2022-08-03T14:32:43;34.80;1.00
13256;DHT22;37913;48.370;10.930;2022-08-03T14:35:11;34.40;1.00
13256;DHT22;37913;48.370;10.930;2022-08-03T14:37:40;33.70;1.00
13256;DHT22;37913;48.370;10.930;2022-08-03T14:40:07;33.40;1.00
13256;DHT22;37913;48.370;10.930;2022-08-03T14:42:36;33.30;1.00
13256;DHT22;37913;48.370;10.930;2022-08-03T14:45:04;33.10;1.00
13256;DHT22;37913;48.370;10.930;2022-08-03T14:47:31;32.70;1.00
13256;DHT22;37913;48.370;10.930;2022-08-03T14:49:58;32.60;1.00
13256;DHT22;37913;48.370;10.930;2022-08-03T14:52:31;32.40;1.00
13256;DHT22;37913;48.370;10.930;2022-08-03T14:55:00;32.40;1.00
13256;DHT22;37913;48.370;10.930;2022-08-03T14:57:27;32.40;1.00
13256;DHT22;37913;48.370;10.930;2022-08-03T14:59:54;32.50;1.00
13256;DHT22;37913;48.370;10.930;2022-08-03T15:02:21;32.70;1.00
13256;DHT22;37913;48.370;10.930;2022-08-03T15:04:48;32.80;1.00
13256;DHT22;37913;48.370;10.930;2022-08-03T15:07:14;32.70;1.00
13256;DHT22;37913;48.370;10.930;2022-08-03T15:09:42;32.70;1.00
13256;DHT22;37913;48.370;10.930;2022-08-03T15:12:11;32.70;1.00
13256;DHT22;37913;48.370;10.930;2022-08-03T15:14:38;32.70;1.00
13256;DHT22;37913;48.370;10.930;2022-08-03T15:17:05;32.50;1.00
13256;DHT22;37913;48.370;10.930;2022-08-03T15:19:32;32.50;1.00
13256;DHT22;37913;48.370;10.930;2022-08-03T15:21:59;32.50;1.00
13256;DHT22;37913;48.370;10.930;2022-08-03T15:24:26;32.40;1.00
13256;DHT22;37913;48.370;10.930;2022-08-03T15:26:54;32.40;1.00
13256;DHT22;37913;48.370;10.930;2022-08-03T15:29:22;32.20;1.00
13256;DHT22;37913;48.370;10.930;2022-08-03T15:31:50;32.20;1.00
13256;DHT22;37913;48.370;10.930;2022-08-03T15:34:17;32.30;1.00
13256;DHT22;37913;48.370;10.930;2022-08-03T15:36:44;32.30;1.00
13256;DHT22;37913;48.370;10.930;2022-08-03T15:39:11;32.40;1.00
13256;DHT22;37913;48.370;10.930;2022-08-03T15:41:38;32.40;1.00
13256;DHT22;37913;48.370;10.930;2022-08-03T15:44:05;32.50;1.00